createdAt,value
2023-07-26T00:02:00.613Z,22.76
2023-07-26T00:04:28.320Z,22.81
2023-07-26T00:06:55.943Z,22.76
2023-07-26T00:09:23.484Z,22.74
2023-07-26T00:11:50.996Z,22.76
2023-07-26T00:14:18.420Z,22.81
2023-07-26T00:16:45.967Z,22.74
2023-07-26T00:19:13.529Z,22.69
2023-07-26T00:21:41.102Z,22.45
2023-07-26T00:24:08.632Z,22.36
2023-07-26T00:26:36.354Z,22.31
2023-07-26T00:29:03.942Z,22.39
2023-07-26T00:31:31.517Z,22.42
2023-07-26T00:33:59.186Z,22.44
2023-07-26T00:36:26.784Z,22.39
2023-07-26T00:38:54.917Z,22.40
2023-07-26T00:41:22.471Z,22.37
2023-07-26T00:43:50.064Z,22.45
2023-07-26T00:46:18.074Z,22.24
2023-07-26T00:48:45.783Z,22.14
2023-07-26T00:51:14.188Z,22.17
2023-07-26T00:53:41.877Z,22.16
2023-07-26T00:56:10.682Z,22.10
2023-07-26T00:58:38.401Z,22.15
2023-07-26T01:01:06.118Z,22.01
2023-07-26T01:03:33.757Z,22.14
2023-07-26T01:06:13.453Z,22.02
2023-07-26T01:08:43.968Z,21.99
2023-07-26T01:11:21.386Z,21.89
2023-07-26T01:14:00.755Z,21.83
2023-07-26T01:16:28.939Z,21.76
2023-07-26T01:18:56.906Z,21.73
2023-07-26T01:21:24.792Z,21.71
2023-07-26T01:23:52.511Z,21.71
2023-07-26T01:26:20.081Z,21.79
2023-07-26T01:28:47.768Z,21.82
2023-07-26T01:31:17.232Z,21.68
2023-07-26T01:33:46.786Z,21.64
2023-07-26T01:36:14.543Z,21.71
2023-07-26T01:38:44.256Z,21.68
2023-07-26T01:41:12.669Z,21.65
2023-07-26T01:43:40.291Z,21.76
2023-07-26T01:46:10.910Z,21.69
2023-07-26T01:48:38.518Z,21.75
2023-07-26T01:51:07.440Z,21.78
2023-07-26T01:53:35.501Z,21.63
2023-07-26T01:56:03.368Z,21.60
2023-07-26T01:58:31.548Z,21.57
2023-07-26T02:00:59.706Z,21.51
2023-07-26T02:03:28.555Z,21.36
2023-07-26T02:05:56.254Z,21.34
2023-07-26T02:08:23.834Z,21.20
2023-07-26T02:10:51.427Z,21.20
2023-07-26T02:13:19.078Z,21.31
2023-07-26T02:15:48.115Z,21.34
2023-07-26T02:18:15.988Z,21.30
2023-07-26T02:20:43.488Z,21.33
2023-07-26T02:23:11.053Z,21.34
2023-07-26T02:25:38.549Z,21.30
2023-07-26T02:28:06.601Z,21.27
2023-07-26T02:30:34.155Z,21.21
2023-07-26T02:33:01.795Z,21.10
2023-07-26T02:35:29.465Z,21.18
2023-07-26T02:37:57.049Z,21.17
2023-07-26T02:40:25.756Z,21.11
2023-07-26T02:42:55.940Z,21.04
2023-07-26T02:45:23.780Z,20.80
2023-07-26T02:47:51.539Z,20.83
2023-07-26T02:50:19.287Z,20.94
2023-07-26T02:52:47.642Z,20.83
2023-07-26T02:55:15.117Z,20.81
2023-07-26T02:57:42.662Z,20.89
2023-07-26T03:00:11.033Z,20.85
2023-07-26T03:02:38.610Z,20.81
2023-07-26T03:05:06.565Z,20.87
2023-07-26T03:07:34.032Z,20.99
2023-07-26T03:10:01.579Z,20.99
2023-07-26T03:12:30.231Z,21.02
2023-07-26T03:14:57.661Z,21.00
2023-07-26T03:17:25.191Z,20.96
2023-07-26T03:19:52.707Z,20.90
2023-07-26T03:22:20.208Z,20.92
2023-07-26T03:24:47.826Z,20.90
2023-07-26T03:27:15.804Z,20.98
2023-07-26T03:29:43.537Z,20.79
2023-07-26T03:32:11.060Z,20.85
2023-07-26T03:34:38.626Z,20.79
2023-07-26T03:37:06.497Z,20.71
2023-07-26T03:39:34.121Z,20.70
2023-07-26T03:42:02.231Z,20.51
2023-07-26T03:44:30.186Z,20.48
2023-07-26T03:46:57.736Z,20.38
2023-07-26T03:49:25.715Z,20.41
2023-07-26T03:51:53.352Z,20.48
2023-07-26T03:54:20.937Z,20.46
2023-07-26T03:56:48.451Z,20.42
2023-07-26T03:59:16.149Z,20.37
2023-07-26T04:01:43.755Z,20.40
2023-07-26T04:04:11.384Z,20.22
2023-07-26T04:06:38.971Z,20.18
2023-07-26T04:09:06.553Z,20.24
2023-07-26T04:11:34.176Z,20.21
2023-07-26T04:14:01.726Z,20.22
2023-07-26T04:16:29.288Z,20.25
2023-07-26T04:18:56.962Z,20.34
2023-07-26T04:21:24.484Z,20.37
2023-07-26T04:23:51.967Z,20.29
2023-07-26T04:26:20.550Z,20.34
2023-07-26T04:28:48.124Z,20.34
2023-07-26T04:31:15.763Z,20.22
2023-07-26T04:33:43.346Z,20.23
2023-07-26T04:36:10.988Z,20.29
2023-07-26T04:38:38.471Z,20.41
2023-07-26T04:41:06.051Z,20.36
2023-07-26T04:43:33.940Z,20.32
2023-07-26T04:46:01.377Z,20.34
2023-07-26T04:48:28.892Z,20.28
2023-07-26T04:50:56.550Z,20.28
2023-07-26T04:53:24.055Z,20.41
2023-07-26T04:55:52.828Z,20.45
2023-07-26T04:58:20.650Z,20.51
2023-07-26T05:00:48.894Z,20.53
2023-07-26T05:03:16.535Z,20.58
2023-07-26T05:05:50.957Z,20.59
2023-07-26T05:08:19.519Z,20.64
2023-07-26T05:10:51.805Z,20.85
2023-07-26T05:13:20.536Z,20.85
2023-07-26T05:15:48.516Z,21.04
2023-07-26T05:18:16.209Z,21.10
2023-07-26T05:20:43.776Z,21.17
2023-07-26T05:23:11.371Z,21.55
2023-07-26T05:25:41.958Z,22.15
2023-07-26T05:28:09.580Z,22.27
2023-07-26T05:30:39.165Z,21.89
2023-07-26T05:33:07.451Z,21.64
2023-07-26T05:35:35.150Z,21.38
2023-07-26T05:38:03.197Z,21.42
2023-07-26T05:40:30.775Z,21.45
2023-07-26T05:43:00.516Z,21.46
2023-07-26T05:45:28.466Z,21.34
2023-07-26T05:47:56.241Z,21.35
2023-07-26T05:50:25.880Z,21.63
2023-07-26T05:52:53.734Z,21.69
2023-07-26T05:55:21.302Z,21.78
2023-07-26T05:57:48.843Z,21.89
2023-07-26T06:00:18.752Z,21.82
2023-07-26T06:02:46.331Z,22.02
2023-07-26T06:05:13.871Z,22.10
2023-07-26T06:07:41.403Z,22.16
2023-07-26T06:10:10.357Z,22.10
2023-07-26T06:12:38.007Z,22.02
2023-07-26T06:15:06.183Z,22.17
2023-07-26T06:17:34.719Z,22.03
2023-07-26T06:20:02.314Z,22.09
2023-07-26T06:22:29.973Z,22.12
2023-07-26T06:24:57.842Z,22.10
2023-07-26T06:27:30.529Z,22.10
2023-07-26T06:29:58.395Z,22.22
2023-07-26T06:32:26.089Z,22.20
2023-07-26T06:34:53.727Z,22.34
2023-07-26T06:37:21.406Z,22.40
2023-07-26T06:39:48.989Z,22.48
2023-07-26T06:42:16.553Z,22.65
2023-07-26T06:44:44.130Z,22.55
2023-07-26T06:47:11.957Z,22.57
2023-07-26T06:49:39.488Z,22.74
2023-07-26T06:52:07.096Z,22.72
2023-07-26T06:54:36.887Z,22.91
2023-07-26T06:57:05.276Z,23.01
2023-07-26T06:59:34.108Z,23.11
2023-07-26T07:02:01.757Z,23.09
2023-07-26T07:04:29.357Z,23.17
2023-07-26T07:06:56.928Z,23.17
2023-07-26T07:09:25.383Z,23.15
2023-07-26T07:11:52.913Z,23.44
2023-07-26T07:14:21.541Z,23.38
2023-07-26T07:16:49.502Z,23.45
2023-07-26T07:19:17.042Z,23.38
2023-07-26T07:21:45.525Z,23.50
2023-07-26T07:24:13.023Z,23.55
2023-07-26T07:26:40.567Z,23.69
2023-07-26T07:29:08.244Z,23.86
2023-07-26T07:31:36.138Z,23.53
2023-07-26T07:34:03.971Z,23.59
2023-07-26T07:36:31.611Z,23.69
2023-07-26T07:39:00.212Z,23.76
2023-07-26T07:41:27.725Z,23.79
2023-07-26T07:43:55.212Z,23.91
2023-07-26T07:46:22.851Z,23.96
2023-07-26T07:48:50.819Z,24.00
2023-07-26T07:51:18.325Z,24.08
2023-07-26T07:53:48.927Z,24.17
2023-07-26T07:56:16.433Z,24.20
2023-07-26T07:58:43.926Z,24.34
2023-07-26T08:01:11.451Z,24.32
2023-07-26T08:03:39.034Z,24.30
2023-07-26T08:06:07.969Z,24.47
2023-07-26T08:08:35.512Z,24.21
2023-07-26T08:11:04.067Z,24.36
2023-07-26T08:13:31.632Z,24.45
2023-07-26T08:16:00.049Z,24.51
2023-07-26T08:18:29.404Z,24.46
2023-07-26T08:20:56.955Z,24.59
2023-07-26T08:23:24.456Z,24.79
2023-07-26T08:25:52.215Z,25.28
2023-07-26T08:28:19.667Z,25.53
2023-07-26T08:30:47.098Z,25.62
2023-07-26T08:33:14.676Z,26.61
2023-07-26T08:35:43.934Z,27.31
2023-07-26T08:38:14.446Z,28.87
2023-07-26T08:40:47.849Z,29.34
2023-07-26T08:43:18.336Z,28.00
2023-07-26T08:45:46.900Z,27.01
2023-07-26T08:48:15.413Z,27.43
2023-07-26T08:50:43.082Z,27.47
2023-07-26T08:53:10.764Z,27.86
2023-07-26T08:55:38.374Z,28.43
2023-07-26T08:58:06.404Z,28.66
2023-07-26T09:00:34.013Z,27.67
2023-07-26T09:03:06.267Z,28.01
2023-07-26T09:05:33.905Z,29.50
2023-07-26T09:08:01.925Z,30.76
2023-07-26T09:10:30.690Z,31.25
2023-07-26T09:13:11.711Z,32.42
2023-07-26T09:15:41.329Z,33.54
2023-07-26T09:18:13.522Z,33.72
2023-07-26T09:20:41.126Z,33.77
2023-07-26T09:23:10.516Z,33.49
2023-07-26T09:25:45.865Z,32.92
2023-07-26T09:28:15.651Z,33.97
2023-07-26T09:30:46.885Z,34.53
2023-07-26T09:33:14.635Z,33.25
2023-07-26T09:35:44.484Z,34.13
2023-07-26T09:38:18.751Z,35.33
2023-07-26T09:40:49.464Z,35.56
2023-07-26T09:43:35.058Z,35.51
2023-07-26T09:46:08.118Z,35.97
2023-07-26T09:48:58.325Z,34.67
2023-07-26T09:51:32.296Z,32.67
2023-07-26T09:54:00.497Z,31.46
2023-07-26T09:56:34.317Z,30.09
2023-07-26T09:59:02.531Z,29.09
2023-07-26T10:01:31.325Z,28.66
2023-07-26T10:04:04.156Z,28.46
2023-07-26T10:06:34.076Z,28.06
2023-07-26T10:09:02.408Z,28.22
2023-07-26T10:11:30.231Z,28.15
2023-07-26T10:14:00.459Z,28.10
2023-07-26T10:16:28.072Z,28.30
2023-07-26T10:18:58.304Z,28.31
2023-07-26T10:21:26.845Z,28.45
2023-07-26T10:23:58.498Z,28.45
2023-07-26T10:26:30.037Z,28.24
2023-07-26T10:29:00.836Z,28.20
2023-07-26T10:31:28.820Z,28.02
2023-07-26T10:33:57.727Z,28.03
2023-07-26T10:36:30.908Z,28.00
2023-07-26T10:39:05.531Z,27.80
2023-07-26T10:41:35.600Z,27.76
2023-07-26T10:44:08.636Z,27.85
2023-07-26T10:46:56.440Z,27.69
2023-07-26T10:49:34.744Z,27.79
2023-07-26T10:52:05.169Z,27.74
2023-07-26T10:54:38.862Z,27.59
2023-07-26T10:57:28.193Z,27.65
2023-07-26T11:00:19.225Z,27.76
2023-07-26T11:02:49.512Z,27.73
2023-07-26T11:05:18.143Z,27.70
2023-07-26T11:08:22.894Z,27.74
2023-07-26T11:10:52.233Z,27.67
2023-07-26T11:13:27.477Z,27.69
2023-07-26T11:16:14.821Z,27.86
2023-07-26T11:18:43.262Z,27.88
2023-07-26T11:21:18.328Z,27.92
2023-07-26T11:23:46.230Z,27.97
2023-07-26T11:26:13.859Z,28.10
2023-07-26T11:28:42.407Z,28.21
2023-07-26T11:31:19.513Z,28.23
2023-07-26T11:33:49.222Z,28.27
2023-07-26T11:36:21.128Z,28.23
2023-07-26T11:38:49.738Z,28.24
2023-07-26T11:41:21.688Z,28.21
2023-07-26T11:44:00.759Z,28.08
2023-07-26T11:46:30.144Z,28.03
2023-07-26T11:48:58.092Z,28.07
2023-07-26T11:51:25.836Z,27.85
2023-07-26T11:53:56.849Z,27.93
2023-07-26T11:56:31.000Z,27.92
2023-07-26T11:59:02.419Z,28.02
2023-07-26T12:01:30.921Z,28.09
2023-07-26T12:03:58.659Z,28.01
2023-07-26T12:06:31.532Z,28.02
2023-07-26T12:09:12.376Z,27.89
2023-07-26T12:11:50.289Z,27.92
2023-07-26T12:14:21.138Z,28.05
2023-07-26T12:16:53.727Z,28.16
2023-07-26T12:19:25.848Z,28.22
2023-07-26T12:21:53.778Z,28.19
2023-07-26T12:24:21.562Z,28.14
2023-07-26T12:26:50.440Z,28.27
2023-07-26T12:29:18.235Z,28.27
2023-07-26T12:31:47.628Z,28.29
2023-07-26T12:34:22.639Z,28.27
2023-07-26T12:36:52.050Z,28.20
2023-07-26T12:39:22.951Z,28.27
2023-07-26T12:41:50.748Z,28.28
2023-07-26T12:44:19.165Z,28.30
2023-07-26T12:49:19.579Z,28.33
2023-07-26T12:51:50.003Z,28.27
2023-07-26T12:54:18.266Z,28.34
2023-07-26T12:56:46.001Z,28.36
2023-07-26T12:59:13.797Z,28.34
2023-07-26T13:01:42.245Z,28.33
2023-07-26T13:04:10.670Z,28.37
2023-07-26T13:06:50.716Z,28.33
2023-07-26T13:09:18.605Z,28.19
2023-07-26T13:11:46.237Z,28.28
2023-07-26T13:14:13.908Z,28.27
2023-07-26T13:16:41.995Z,28.15
2023-07-26T13:19:10.364Z,28.10
2023-07-26T13:21:37.876Z,28.13
2023-07-26T13:24:06.014Z,28.27
2023-07-26T13:26:33.846Z,28.16
2023-07-26T13:29:02.380Z,28.26
2023-07-26T13:31:30.168Z,28.00
2023-07-26T13:33:57.822Z,28.15
2023-07-26T13:36:25.764Z,28.09
2023-07-26T13:38:53.808Z,28.09
2023-07-26T13:41:21.548Z,28.12
2023-07-26T13:43:49.338Z,28.11
2023-07-26T13:46:33.769Z,27.98
2023-07-26T13:49:04.912Z,28.10
2023-07-26T13:51:33.280Z,28.17
2023-07-26T13:54:02.053Z,28.23
2023-07-26T13:56:30.214Z,28.07
2023-07-26T13:58:57.828Z,28.17
2023-07-26T14:01:27.571Z,28.29
2023-07-26T14:03:55.372Z,28.24
2023-07-26T14:06:25.995Z,28.25
2023-07-26T14:08:53.833Z,28.33
2023-07-26T14:11:21.684Z,28.35
2023-07-26T14:13:50.426Z,28.20
2023-07-26T14:16:22.978Z,28.29
2023-07-26T14:18:54.441Z,28.28
2023-07-26T14:21:22.227Z,28.33
2023-07-26T14:23:49.865Z,28.21
2023-07-26T14:26:17.513Z,28.23
2023-07-26T14:28:45.120Z,28.03
2023-07-26T14:31:12.883Z,28.11
2023-07-26T14:33:40.544Z,28.02
2023-07-26T14:36:08.279Z,28.04
2023-07-26T14:38:36.100Z,28.04
2023-07-26T14:41:03.727Z,28.04
2023-07-26T14:43:31.232Z,28.10
2023-07-26T14:45:58.967Z,28.07
2023-07-26T14:48:26.544Z,28.08
2023-07-26T14:50:55.326Z,28.15
2023-07-26T14:53:26.810Z,28.21
2023-07-26T14:55:54.499Z,28.19
2023-07-26T14:58:22.112Z,28.18
2023-07-26T15:00:49.753Z,28.23
2023-07-26T15:03:17.475Z,28.41
2023-07-26T15:05:47.126Z,28.35
2023-07-26T15:08:15.064Z,28.21
2023-07-26T15:10:42.800Z,28.27
2023-07-26T15:13:11.873Z,28.22
2023-07-26T15:15:45.525Z,28.23
2023-07-26T15:18:14.733Z,28.14
2023-07-26T15:20:45.114Z,28.27
2023-07-26T15:23:13.112Z,28.19
2023-07-26T15:25:41.203Z,28.18
2023-07-26T15:28:09.676Z,28.04
2023-07-26T15:30:38.032Z,27.92
2023-07-26T15:33:06.627Z,27.98
2023-07-26T15:35:38.334Z,28.01
2023-07-26T15:38:07.236Z,28.12
2023-07-26T15:40:49.497Z,28.18
2023-07-26T15:48:18.956Z,28.19
2023-07-26T15:53:17.364Z,28.18
2023-07-26T15:55:45.169Z,28.08
2023-07-26T15:58:12.750Z,28.07
2023-07-26T16:00:40.519Z,27.92
2023-07-26T16:03:08.215Z,27.93
2023-07-26T16:10:37.408Z,28.05
2023-07-26T16:13:05.166Z,28.02
2023-07-26T16:20:34.065Z,28.03
2023-07-26T16:23:01.685Z,28.06
2023-07-26T16:25:29.372Z,28.03
2023-07-26T16:27:57.053Z,28.02
2023-07-26T16:30:25.043Z,27.93
2023-07-26T16:32:52.808Z,27.90
2023-07-26T16:35:20.709Z,28.01
2023-07-26T16:37:58.903Z,27.94
2023-07-26T16:40:31.621Z,27.96
2023-07-26T16:43:01.669Z,27.82
2023-07-26T16:45:31.689Z,27.89
2023-07-26T16:48:01.549Z,27.84
2023-07-26T16:50:29.329Z,27.77
2023-07-26T16:52:57.137Z,27.83
2023-07-26T16:55:24.916Z,27.82
2023-07-26T16:57:52.726Z,27.78
2023-07-26T17:00:20.477Z,27.73
2023-07-26T17:02:48.452Z,27.75
2023-07-26T17:05:16.726Z,27.70
2023-07-26T17:07:44.305Z,27.71
2023-07-26T17:10:12.028Z,27.67
2023-07-26T17:12:42.575Z,27.62
2023-07-26T17:15:10.883Z,27.66
2023-07-26T17:17:38.578Z,27.60
2023-07-26T17:20:07.187Z,27.56
2023-07-26T17:22:34.995Z,27.50
2023-07-26T17:25:02.989Z,27.50
2023-07-26T17:27:30.807Z,27.49
2023-07-26T17:29:58.666Z,27.40
2023-07-26T17:32:26.540Z,27.39
2023-07-26T17:34:54.160Z,27.41
2023-07-26T17:37:21.873Z,27.34
2023-07-26T17:39:52.365Z,27.33
2023-07-26T17:42:20.066Z,27.33
2023-07-26T17:44:48.505Z,27.23
2023-07-26T17:47:16.323Z,27.15
2023-07-26T17:49:45.243Z,27.12
2023-07-26T17:52:12.973Z,27.15
2023-07-26T17:54:40.639Z,27.04
2023-07-26T17:57:08.385Z,27.03
2023-07-26T17:59:39.472Z,27.00
2023-07-26T18:02:07.598Z,26.93
2023-07-26T18:04:35.444Z,26.92
2023-07-26T18:07:03.142Z,26.91
2023-07-26T18:09:31.449Z,26.89
2023-07-26T18:11:59.086Z,26.78
2023-07-26T18:14:28.462Z,26.77
2023-07-26T18:16:56.197Z,26.75
2023-07-26T18:19:23.857Z,26.68
2023-07-26T18:21:51.519Z,26.63
2023-07-26T18:24:19.208Z,26.57
2023-07-26T18:26:47.310Z,26.52
2023-07-26T18:29:17.514Z,26.46
2023-07-26T18:31:45.333Z,26.37
2023-07-26T18:34:13.230Z,26.34
2023-07-26T18:36:40.818Z,26.31
2023-07-26T18:39:08.331Z,26.25
2023-07-26T18:41:35.948Z,26.24
2023-07-26T18:44:03.893Z,26.24
2023-07-26T18:46:31.483Z,26.20
2023-07-26T18:48:59.108Z,26.15
2023-07-26T18:51:26.564Z,26.10
2023-07-26T18:53:54.124Z,26.12
2023-07-26T18:56:21.668Z,26.12
2023-07-26T18:58:49.272Z,26.08
2023-07-26T19:01:17.036Z,26.05
2023-07-26T19:03:44.621Z,26.06
2023-07-26T19:06:12.278Z,26.05
2023-07-26T19:08:39.974Z,26.03
2023-07-26T19:11:07.570Z,25.99
2023-07-26T19:13:35.008Z,25.96
2023-07-26T19:16:02.607Z,25.89
2023-07-26T19:18:30.054Z,25.77
2023-07-26T19:21:01.871Z,25.65
2023-07-26T19:23:29.749Z,25.71
2023-07-26T19:25:57.231Z,25.80
2023-07-26T19:28:24.822Z,26.00
2023-07-26T19:30:52.404Z,25.94
2023-07-26T19:33:20.134Z,25.95
2023-07-26T19:35:57.964Z,25.94
2023-07-26T19:38:27.051Z,25.89
2023-07-26T19:41:05.257Z,25.54
2023-07-26T19:43:33.661Z,25.27
2023-07-26T19:46:02.412Z,25.08
2023-07-26T19:48:30.150Z,25.01
2023-07-26T19:50:58.939Z,25.01
2023-07-26T19:53:28.388Z,24.85
2023-07-26T19:55:55.927Z,24.72
2023-07-26T19:58:23.549Z,24.67
2023-07-26T20:00:51.182Z,24.57
2023-07-26T20:03:18.698Z,24.48
2023-07-26T20:05:50.608Z,24.33
2023-07-26T20:08:18.262Z,24.25
2023-07-26T20:10:46.172Z,24.20
2023-07-26T20:13:14.221Z,23.96
2023-07-26T20:15:41.951Z,23.79
2023-07-26T20:18:10.152Z,23.61
2023-07-26T20:20:38.169Z,23.49
2023-07-26T20:23:06.549Z,23.29
2023-07-26T20:25:35.347Z,23.10
2023-07-26T20:28:02.915Z,22.91
2023-07-26T20:30:30.632Z,22.71
2023-07-26T20:32:58.940Z,22.70
2023-07-26T20:35:26.637Z,22.49
2023-07-26T20:37:54.999Z,22.43
2023-07-26T20:40:22.666Z,22.28
2023-07-26T20:45:17.854Z,21.95
2023-07-26T20:47:45.578Z,21.92
2023-07-26T20:50:13.350Z,21.80
2023-07-26T20:52:41.102Z,21.87
2023-07-26T20:55:09.133Z,21.81
2023-07-26T20:57:36.858Z,21.75
2023-07-26T21:00:05.632Z,21.80
2023-07-26T21:02:33.410Z,21.81
2023-07-26T21:05:01.693Z,21.78
2023-07-26T21:07:29.700Z,21.86
2023-07-26T21:09:57.628Z,21.77
2023-07-26T21:12:25.355Z,21.78
2023-07-26T21:14:53.240Z,21.86
2023-07-26T21:17:21.012Z,21.95
2023-07-26T21:19:48.866Z,21.91
2023-07-26T21:22:16.557Z,21.90
2023-07-26T21:24:44.296Z,21.92
2023-07-26T21:27:11.950Z,21.94
2023-07-26T21:29:39.620Z,21.98
2023-07-26T21:32:07.941Z,22.09
2023-07-26T21:34:35.690Z,22.13
2023-07-26T21:37:03.523Z,22.04
2023-07-26T21:39:31.134Z,22.05
2023-07-26T21:41:58.772Z,21.98
2023-07-26T21:44:29.775Z,22.08
2023-07-26T21:46:57.778Z,22.02
2023-07-26T21:49:25.318Z,21.95
2023-07-26T21:51:52.985Z,21.93
2023-07-26T21:54:20.593Z,21.91
2023-07-26T21:56:48.235Z,21.84
2023-07-26T21:59:15.789Z,21.66
2023-07-26T22:01:45.217Z,21.72
2023-07-26T22:04:13.105Z,21.67
2023-07-26T22:06:40.796Z,21.67
2023-07-26T22:09:08.339Z,21.60
2023-07-26T22:11:36.113Z,21.49
2023-07-26T22:14:04.039Z,21.56
2023-07-26T22:16:32.163Z,21.46
2023-07-26T22:18:59.918Z,21.40
2023-07-26T22:21:27.574Z,21.46
2023-07-26T22:23:55.858Z,21.48
2023-07-26T22:26:23.781Z,21.34
2023-07-26T22:28:51.425Z,21.52
2023-07-26T22:31:19.365Z,21.46
2023-07-26T22:33:46.887Z,21.43
2023-07-26T22:36:14.318Z,21.43
2023-07-26T22:38:42.014Z,21.32
2023-07-26T22:41:10.225Z,21.38
2023-07-26T22:43:37.721Z,21.26
2023-07-26T22:46:05.860Z,21.27
2023-07-26T22:48:33.449Z,21.19
2023-07-26T22:51:00.930Z,21.23
2023-07-26T22:53:28.503Z,21.21
2023-07-26T22:55:56.471Z,21.26
2023-07-26T22:58:23.964Z,21.21
2023-07-26T23:00:59.165Z,21.10
2023-07-26T23:03:26.945Z,21.19
2023-07-26T23:05:59.014Z,21.24
2023-07-26T23:08:27.570Z,21.23
2023-07-26T23:10:59.843Z,21.33
2023-07-26T23:13:28.666Z,21.33
2023-07-26T23:15:58.445Z,21.28
2023-07-26T23:18:26.789Z,21.29
2023-07-26T23:20:54.603Z,21.32
2023-07-26T23:23:23.663Z,21.25
2023-07-26T23:25:51.506Z,21.33
2023-07-26T23:28:19.037Z,21.35
2023-07-26T23:30:47.892Z,21.23
2023-07-26T23:33:16.803Z,21.18
2023-07-26T23:35:45.600Z,21.33
2023-07-26T23:38:13.904Z,21.31
2023-07-26T23:40:41.782Z,21.24
2023-07-26T23:43:10.874Z,21.22
2023-07-26T23:45:38.576Z,21.25
2023-07-26T23:48:06.302Z,21.19
2023-07-26T23:50:33.711Z,21.15
2023-07-26T23:53:01.094Z,21.10
2023-07-26T23:55:28.605Z,21.07
2023-07-26T23:57:56.162Z,21.18
